sensor_id;sensor_type;location;lat;lon;timestamp;temperature;humidity
53926;DHT22;39836;52.754;6.866;2022-09-17T00:00:39;10.00;81.00
53926;DHT22;39836;52.754;6.866;2022-09-17T00:03:06;10.00;81.00
53926;DHT22;39836;52.754;6.866;2022-09-17T00:05:32;9.90;81.00
53926;DHT22;39836;52.754;6.866;2022-09-17T00:07:58;9.90;80.90
53926;DHT22;39836;52.754;6.866;2022-09-17T00:10:24;9.90;80.90
53926;DHT22;39836;52.754;6.866;2022-09-17T00:12:50;9.80;80.90
53926;DHT22;39836;52.754;6.866;2022-09-17T00:15:16;9.70;80.80
53926;DHT22;39836;52.754;6.866;2022-09-17T00:17:41;9.70;80.80
53926;DHT22;39836;52.754;6.866;2022-09-17T00:20:08;9.60;80.80
53926;DHT22;39836;52.754;6.866;2022-09-17T00:22:38;9.60;80.80
53926;DHT22;39836;52.754;6.866;2022-09-17T00:25:05;9.50;80.80
53926;DHT22;39836;52.754;6.866;2022-09-17T00:27:31;9.50;80.70
53926;DHT22;39836;52.754;6.866;2022-09-17T00:29:57;9.50;80.70
53926;DHT22;39836;52.754;6.866;2022-09-17T00:32:23;9.40;80.70
53926;DHT22;39836;52.754;6.866;2022-09-17T00:34:49;9.30;80.70
53926;DHT22;39836;52.754;6.866;2022-09-17T00:37:19;9.30;80.70
53926;DHT22;39836;52.754;6.866;2022-09-17T00:39:45;9.30;80.60
53926;DHT22;39836;52.754;6.866;2022-09-17T00:42:12;9.20;80.60
53926;DHT22;39836;52.754;6.866;2022-09-17T00:44:48;9.20;80.60
53926;DHT22;39836;52.754;6.866;2022-09-17T00:47:34;9.10;80.60
53926;DHT22;39836;52.754;6.866;2022-09-17T00:50:08;9.10;80.60
53926;DHT22;39836;52.754;6.866;2022-09-17T00:52:44;9.10;80.60
53926;DHT22;39836;52.754;6.866;2022-09-17T00:55:22;9.10;80.60
53926;DHT22;39836;52.754;6.866;2022-09-17T00:57:50;9.00;80.60
53926;DHT22;39836;52.754;6.866;2022-09-17T01:00:17;9.00;80.60
53926;DHT22;39836;52.754;6.866;2022-09-17T01:02:44;9.00;80.60
53926;DHT22;39836;52.754;6.866;2022-09-17T01:05:11;9.00;80.60
53926;DHT22;39836;52.754;6.866;2022-09-17T01:11:00;9.10;80.70
53926;DHT22;39836;52.754;6.866;2022-09-17T01:13:53;9.10;80.70
53926;DHT22;39836;52.754;6.866;2022-09-17T01:19:38;9.10;80.70
53926;DHT22;39836;52.754;6.866;2022-09-17T01:22:32;9.00;80.60
53926;DHT22;39836;52.754;6.866;2022-09-17T01:25:35;9.00;80.60
53926;DHT22;39836;52.754;6.866;2022-09-17T01:28:22;9.00;80.60
53926;DHT22;39836;52.754;6.866;2022-09-17T01:36:09;9.00;80.60
53926;DHT22;39836;52.754;6.866;2022-09-17T01:38:43;9.00;80.60
53926;DHT22;39836;52.754;6.866;2022-09-17T01:43:53;8.90;80.50
53926;DHT22;39836;52.754;6.866;2022-09-17T01:46:29;8.90;80.50
53926;DHT22;39836;52.754;6.866;2022-09-17T01:49:00;8.90;80.50
53926;DHT22;39836;52.754;6.866;2022-09-17T01:51:29;8.80;80.50
53926;DHT22;39836;52.754;6.866;2022-09-17T01:54:05;8.80;80.50
53926;DHT22;39836;52.754;6.866;2022-09-17T01:56:41;8.80;80.50
53926;DHT22;39836;52.754;6.866;2022-09-17T01:59:13;8.80;80.50
53926;DHT22;39836;52.754;6.866;2022-09-17T02:01:42;8.70;80.50
53926;DHT22;39836;52.754;6.866;2022-09-17T02:04:16;8.70;80.50
53926;DHT22;39836;52.754;6.866;2022-09-17T02:06:48;8.80;80.50
53926;DHT22;39836;52.754;6.866;2022-09-17T02:09:41;8.70;80.50
53926;DHT22;39836;52.754;6.866;2022-09-17T02:12:12;8.80;80.60
53926;DHT22;39836;52.754;6.866;2022-09-17T02:14:46;8.80;80.50
53926;DHT22;39836;52.754;6.866;2022-09-17T02:17:24;8.80;80.50
53926;DHT22;39836;52.754;6.866;2022-09-17T02:19:52;8.80;80.50
53926;DHT22;39836;52.754;6.866;2022-09-17T02:22:32;8.80;80.50
53926;DHT22;39836;52.754;6.866;2022-09-17T02:25:17;8.80;80.50
53926;DHT22;39836;52.754;6.866;2022-09-17T02:27:50;8.80;80.50
53926;DHT22;39836;52.754;6.866;2022-09-17T02:30:17;8.80;80.50
53926;DHT22;39836;52.754;6.866;2022-09-17T02:32:43;8.80;80.50
53926;DHT22;39836;52.754;6.866;2022-09-17T02:35:10;8.80;80.50
53926;DHT22;39836;52.754;6.866;2022-09-17T02:37:39;8.90;80.50
53926;DHT22;39836;52.754;6.866;2022-09-17T02:40:05;8.90;80.50
53926;DHT22;39836;52.754;6.866;2022-09-17T02:43:00;8.90;80.50
53926;DHT22;39836;52.754;6.866;2022-09-17T02:54:09;8.90;80.60
53926;DHT22;39836;52.754;6.866;2022-09-17T02:59:49;8.90;80.50
53926;DHT22;39836;52.754;6.866;2022-09-17T03:04:47;9.00;80.50
53926;DHT22;39836;52.754;6.866;2022-09-17T03:07:13;9.00;80.60
53926;DHT22;39836;52.754;6.866;2022-09-17T03:09:40;9.00;80.60
53926;DHT22;39836;52.754;6.866;2022-09-17T03:12:08;9.10;80.60
53926;DHT22;39836;52.754;6.866;2022-09-17T03:14:34;9.10;80.60
53926;DHT22;39836;52.754;6.866;2022-09-17T03:17:00;9.20;80.60
53926;DHT22;39836;52.754;6.866;2022-09-17T03:19:27;9.20;80.60
53926;DHT22;39836;52.754;6.866;2022-09-17T03:21:53;9.20;80.70
53926;DHT22;39836;52.754;6.866;2022-09-17T03:24:18;9.30;80.70
53926;DHT22;39836;52.754;6.866;2022-09-17T03:26:44;9.30;80.60
53926;DHT22;39836;52.754;6.866;2022-09-17T03:29:12;9.40;80.60
53926;DHT22;39836;52.754;6.866;2022-09-17T03:31:38;9.30;80.50
53926;DHT22;39836;52.754;6.866;2022-09-17T03:34:03;9.30;80.50
53926;DHT22;39836;52.754;6.866;2022-09-17T03:36:29;9.30;80.50
53926;DHT22;39836;52.754;6.866;2022-09-17T03:38:55;9.20;80.40
53926;DHT22;39836;52.754;6.866;2022-09-17T03:41:21;9.20;80.40
53926;DHT22;39836;52.754;6.866;2022-09-17T03:43:47;9.20;80.40
53926;DHT22;39836;52.754;6.866;2022-09-17T03:46:13;9.10;80.40
53926;DHT22;39836;52.754;6.866;2022-09-17T03:48:38;9.10;80.40
53926;DHT22;39836;52.754;6.866;2022-09-17T03:51:04;9.00;80.30
53926;DHT22;39836;52.754;6.866;2022-09-17T03:53:31;9.00;80.40
53926;DHT22;39836;52.754;6.866;2022-09-17T03:56:01;9.00;80.40
53926;DHT22;39836;52.754;6.866;2022-09-17T03:58:28;9.00;80.50
53926;DHT22;39836;52.754;6.866;2022-09-17T04:00:54;9.00;80.40
53926;DHT22;39836;52.754;6.866;2022-09-17T04:03:23;9.10;80.40
53926;DHT22;39836;52.754;6.866;2022-09-17T04:05:49;9.00;80.40
53926;DHT22;39836;52.754;6.866;2022-09-17T04:08:14;9.00;80.40
53926;DHT22;39836;52.754;6.866;2022-09-17T04:10:40;9.00;80.40
53926;DHT22;39836;52.754;6.866;2022-09-17T04:13:06;9.00;80.40
53926;DHT22;39836;52.754;6.866;2022-09-17T04:15:31;9.00;80.30
53926;DHT22;39836;52.754;6.866;2022-09-17T04:17:57;9.00;80.40
53926;DHT22;39836;52.754;6.866;2022-09-17T04:20:23;9.10;80.50
53926;DHT22;39836;52.754;6.866;2022-09-17T04:22:49;9.10;80.50
53926;DHT22;39836;52.754;6.866;2022-09-17T04:25:15;9.20;80.40
53926;DHT22;39836;52.754;6.866;2022-09-17T04:27:42;9.20;80.40
53926;DHT22;39836;52.754;6.866;2022-09-17T04:30:08;9.20;80.30
53926;DHT22;39836;52.754;6.866;2022-09-17T04:32:33;9.20;80.30
53926;DHT22;39836;52.754;6.866;2022-09-17T04:34:59;9.20;80.30
53926;DHT22;39836;52.754;6.866;2022-09-17T04:37:25;9.20;80.30
53926;DHT22;39836;52.754;6.866;2022-09-17T04:39:51;9.20;80.30
53926;DHT22;39836;52.754;6.866;2022-09-17T04:42:17;9.20;80.30
53926;DHT22;39836;52.754;6.866;2022-09-17T04:44:43;9.10;80.30
53926;DHT22;39836;52.754;6.866;2022-09-17T04:47:08;9.20;80.30
53926;DHT22;39836;52.754;6.866;2022-09-17T04:49:34;9.10;80.30
53926;DHT22;39836;52.754;6.866;2022-09-17T04:52:00;9.00;80.30
53926;DHT22;39836;52.754;6.866;2022-09-17T04:54:25;9.00;80.30
53926;DHT22;39836;52.754;6.866;2022-09-17T04:56:51;8.90;80.30
53926;DHT22;39836;52.754;6.866;2022-09-17T04:59:16;8.90;80.30
53926;DHT22;39836;52.754;6.866;2022-09-17T05:01:42;8.90;80.40
53926;DHT22;39836;52.754;6.866;2022-09-17T05:04:09;8.90;80.40
53926;DHT22;39836;52.754;6.866;2022-09-17T05:06:35;8.90;80.40
53926;DHT22;39836;52.754;6.866;2022-09-17T05:09:00;8.90;80.40
53926;DHT22;39836;52.754;6.866;2022-09-17T05:11:29;8.90;80.40
53926;DHT22;39836;52.754;6.866;2022-09-17T05:13:55;8.90;80.30
53926;DHT22;39836;52.754;6.866;2022-09-17T05:16:20;9.00;80.40
53926;DHT22;39836;52.754;6.866;2022-09-17T05:18:46;9.00;80.40
53926;DHT22;39836;52.754;6.866;2022-09-17T05:21:14;9.10;80.30
53926;DHT22;39836;52.754;6.866;2022-09-17T05:23:39;9.00;80.30
53926;DHT22;39836;52.754;6.866;2022-09-17T05:26:05;9.10;80.30
53926;DHT22;39836;52.754;6.866;2022-09-17T05:28:31;9.10;80.30
53926;DHT22;39836;52.754;6.866;2022-09-17T05:31:00;9.10;80.20
53926;DHT22;39836;52.754;6.866;2022-09-17T05:33:26;9.10;80.20
53926;DHT22;39836;52.754;6.866;2022-09-17T05:35:52;9.10;80.10
53926;DHT22;39836;52.754;6.866;2022-09-17T05:38:18;9.10;80.00
53926;DHT22;39836;52.754;6.866;2022-09-17T05:40:44;9.20;79.90
53926;DHT22;39836;52.754;6.866;2022-09-17T05:43:10;9.20;79.90
53926;DHT22;39836;52.754;6.866;2022-09-17T05:45:36;9.20;79.90
53926;DHT22;39836;52.754;6.866;2022-09-17T05:48:04;9.20;79.80
53926;DHT22;39836;52.754;6.866;2022-09-17T05:50:31;9.20;79.70
53926;DHT22;39836;52.754;6.866;2022-09-17T05:53:01;9.10;79.70
53926;DHT22;39836;52.754;6.866;2022-09-17T05:55:27;9.20;79.80
53926;DHT22;39836;52.754;6.866;2022-09-17T05:57:53;9.20;79.70
53926;DHT22;39836;52.754;6.866;2022-09-17T06:00:19;9.10;79.70
53926;DHT22;39836;52.754;6.866;2022-09-17T06:02:45;9.10;79.80
53926;DHT22;39836;52.754;6.866;2022-09-17T06:05:10;9.20;79.80
53926;DHT22;39836;52.754;6.866;2022-09-17T06:07:37;9.20;79.70
53926;DHT22;39836;52.754;6.866;2022-09-17T06:10:04;9.30;79.80
53926;DHT22;39836;52.754;6.866;2022-09-17T06:12:31;9.30;79.70
53926;DHT22;39836;52.754;6.866;2022-09-17T06:14:57;9.40;79.70
53926;DHT22;39836;52.754;6.866;2022-09-17T06:17:22;9.40;79.50
53926;DHT22;39836;52.754;6.866;2022-09-17T06:19:48;9.50;79.50
53926;DHT22;39836;52.754;6.866;2022-09-17T06:22:17;9.50;79.40
53926;DHT22;39836;52.754;6.866;2022-09-17T06:24:42;9.60;79.40
53926;DHT22;39836;52.754;6.866;2022-09-17T06:27:08;9.60;79.50
53926;DHT22;39836;52.754;6.866;2022-09-17T06:29:34;9.70;79.40
53926;DHT22;39836;52.754;6.866;2022-09-17T06:31:59;9.80;79.40
53926;DHT22;39836;52.754;6.866;2022-09-17T06:34:27;9.80;79.10
53926;DHT22;39836;52.754;6.866;2022-09-17T06:36:52;9.70;79.20
53926;DHT22;39836;52.754;6.866;2022-09-17T06:39:18;9.70;79.10
53926;DHT22;39836;52.754;6.866;2022-09-17T06:41:44;9.70;79.10
53926;DHT22;39836;52.754;6.866;2022-09-17T06:44:10;9.70;79.20
53926;DHT22;39836;52.754;6.866;2022-09-17T06:46:36;9.70;79.20
53926;DHT22;39836;52.754;6.866;2022-09-17T06:49:02;9.60;79.00
53926;DHT22;39836;52.754;6.866;2022-09-17T06:51:28;9.60;79.10
53926;DHT22;39836;52.754;6.866;2022-09-17T06:53:53;9.60;79.10
53926;DHT22;39836;52.754;6.866;2022-09-17T06:56:19;9.70;79.30
53926;DHT22;39836;52.754;6.866;2022-09-17T06:58:44;9.80;79.30
53926;DHT22;39836;52.754;6.866;2022-09-17T07:01:12;9.90;79.40
53926;DHT22;39836;52.754;6.866;2022-09-17T07:03:38;10.00;79.40
53926;DHT22;39836;52.754;6.866;2022-09-17T07:06:07;10.10;79.50
53926;DHT22;39836;52.754;6.866;2022-09-17T07:08:34;10.20;79.50
53926;DHT22;39836;52.754;6.866;2022-09-17T07:11:00;10.10;79.60
53926;DHT22;39836;52.754;6.866;2022-09-17T07:13:26;10.00;79.40
53926;DHT22;39836;52.754;6.866;2022-09-17T07:15:56;10.00;79.40
53926;DHT22;39836;52.754;6.866;2022-09-17T07:18:22;9.90;79.40
53926;DHT22;39836;52.754;6.866;2022-09-17T07:20:56;9.80;79.40
53926;DHT22;39836;52.754;6.866;2022-09-17T07:23:23;9.80;79.30
53926;DHT22;39836;52.754;6.866;2022-09-17T07:25:53;9.80;79.30
53926;DHT22;39836;52.754;6.866;2022-09-17T07:28:19;9.90;79.40
53926;DHT22;39836;52.754;6.866;2022-09-17T07:30:45;10.00;79.50
53926;DHT22;39836;52.754;6.866;2022-09-17T07:33:11;10.10;79.60
53926;DHT22;39836;52.754;6.866;2022-09-17T07:35:37;10.20;79.60
53926;DHT22;39836;52.754;6.866;2022-09-17T07:38:02;10.30;79.50
53926;DHT22;39836;52.754;6.866;2022-09-17T07:40:28;10.40;79.50
53926;DHT22;39836;52.754;6.866;2022-09-17T07:42:56;10.40;79.50
53926;DHT22;39836;52.754;6.866;2022-09-17T07:45:23;10.40;79.40
53926;DHT22;39836;52.754;6.866;2022-09-17T07:47:49;10.30;79.40
53926;DHT22;39836;52.754;6.866;2022-09-17T07:50:15;10.40;79.60
53926;DHT22;39836;52.754;6.866;2022-09-17T07:52:47;10.40;79.60
53926;DHT22;39836;52.754;6.866;2022-09-17T07:55:14;10.50;79.70
53926;DHT22;39836;52.754;6.866;2022-09-17T07:57:39;10.70;79.80
53926;DHT22;39836;52.754;6.866;2022-09-17T08:00:06;10.90;79.90
53926;DHT22;39836;52.754;6.866;2022-09-17T08:02:32;11.00;79.80
53926;DHT22;39836;52.754;6.866;2022-09-17T08:04:57;11.00;79.80
53926;DHT22;39836;52.754;6.866;2022-09-17T08:07:23;11.00;79.70
53926;DHT22;39836;52.754;6.866;2022-09-17T08:09:49;11.10;79.50
53926;DHT22;39836;52.754;6.866;2022-09-17T08:12:15;11.30;79.50
53926;DHT22;39836;52.754;6.866;2022-09-17T08:14:42;11.40;79.20
53926;DHT22;39836;52.754;6.866;2022-09-17T08:17:08;11.50;79.20
53926;DHT22;39836;52.754;6.866;2022-09-17T08:19:34;11.50;78.80
53926;DHT22;39836;52.754;6.866;2022-09-17T08:22:00;11.60;78.80
53926;DHT22;39836;52.754;6.866;2022-09-17T08:24:26;11.80;78.50
53926;DHT22;39836;52.754;6.866;2022-09-17T08:26:52;12.00;78.70
53926;DHT22;39836;52.754;6.866;2022-09-17T08:29:18;12.20;78.70
53926;DHT22;39836;52.754;6.866;2022-09-17T08:31:43;12.50;78.90
53926;DHT22;39836;52.754;6.866;2022-09-17T08:34:09;12.40;78.70
53926;DHT22;39836;52.754;6.866;2022-09-17T08:36:35;12.20;79.00
53926;DHT22;39836;52.754;6.866;2022-09-17T08:39:01;12.10;79.00
53926;DHT22;39836;52.754;6.866;2022-09-17T08:44:34;12.10;79.30
53926;DHT22;39836;52.754;6.866;2022-09-17T08:47:12;12.40;79.30
53926;DHT22;39836;52.754;6.866;2022-09-17T08:49:51;12.60;79.50
53926;DHT22;39836;52.754;6.866;2022-09-17T09:00:12;12.70;78.60
53926;DHT22;39836;52.754;6.866;2022-09-17T09:05:54;12.30;78.10
53926;DHT22;39836;52.754;6.866;2022-09-17T09:08:36;12.20;78.00
53926;DHT22;39836;52.754;6.866;2022-09-17T09:11:10;12.10;78.10
53926;DHT22;39836;52.754;6.866;2022-09-17T09:13:40;12.00;78.50
53926;DHT22;39836;52.754;6.866;2022-09-17T09:16:28;12.00;78.40
53926;DHT22;39836;52.754;6.866;2022-09-17T09:19:00;12.20;78.70
53926;DHT22;39836;52.754;6.866;2022-09-17T09:21:38;12.50;78.10
53926;DHT22;39836;52.754;6.866;2022-09-17T09:26:46;12.80;78.30
53926;DHT22;39836;52.754;6.866;2022-09-17T09:35:17;13.20;77.80
53926;DHT22;39836;52.754;6.866;2022-09-17T09:43:10;13.50;77.30
53926;DHT22;39836;52.754;6.866;2022-09-17T09:56:52;12.90;78.30
53926;DHT22;39836;52.754;6.866;2022-09-17T09:59:19;12.90;78.10
53926;DHT22;39836;52.754;6.866;2022-09-17T10:01:45;13.10;78.30
53926;DHT22;39836;52.754;6.866;2022-09-17T10:04:29;13.50;78.40
53926;DHT22;39836;52.754;6.866;2022-09-17T10:07:08;13.80;78.20
53926;DHT22;39836;52.754;6.866;2022-09-17T10:09:40;13.70;77.30
53926;DHT22;39836;52.754;6.866;2022-09-17T10:14:39;13.70;78.00
53926;DHT22;39836;52.754;6.866;2022-09-17T10:17:15;13.90;77.30
53926;DHT22;39836;52.754;6.866;2022-09-17T10:19:43;14.20;78.10
53926;DHT22;39836;52.754;6.866;2022-09-17T10:22:29;14.40;77.90
53926;DHT22;39836;52.754;6.866;2022-09-17T10:24:56;14.40;77.00
53926;DHT22;39836;52.754;6.866;2022-09-17T10:27:24;14.10;78.10
53926;DHT22;39836;52.754;6.866;2022-09-17T10:29:56;13.70;78.50
53926;DHT22;39836;52.754;6.866;2022-09-17T10:32:23;13.30;78.60
53926;DHT22;39836;52.754;6.866;2022-09-17T10:35:01;13.00;79.10
53926;DHT22;39836;52.754;6.866;2022-09-17T10:37:47;12.90;79.30
53926;DHT22;39836;52.754;6.866;2022-09-17T10:42:49;12.90;79.40
53926;DHT22;39836;52.754;6.866;2022-09-17T10:45:28;13.00;79.40
53926;DHT22;39836;52.754;6.866;2022-09-17T10:47:56;13.20;79.00
53926;DHT22;39836;52.754;6.866;2022-09-17T10:50:26;13.40;78.80
53926;DHT22;39836;52.754;6.866;2022-09-17T10:52:55;13.50;78.70
53926;DHT22;39836;52.754;6.866;2022-09-17T11:06:23;13.90;77.10
53926;DHT22;39836;52.754;6.866;2022-09-17T11:09:05;14.00;77.70
53926;DHT22;39836;52.754;6.866;2022-09-17T11:19:45;14.60;76.30
53926;DHT22;39836;52.754;6.866;2022-09-17T11:28:16;15.00;76.20
53926;DHT22;39836;52.754;6.866;2022-09-17T11:31:07;14.70;76.50
53926;DHT22;39836;52.754;6.866;2022-09-17T11:36:32;13.90;78.10
53926;DHT22;39836;52.754;6.866;2022-09-17T11:39:27;12.90;77.80
53926;DHT22;39836;52.754;6.866;2022-09-17T11:41:57;11.90;77.90
53926;DHT22;39836;52.754;6.866;2022-09-17T11:44:29;11.40;78.80
53926;DHT22;39836;52.754;6.866;2022-09-17T11:52:17;10.80;79.80
53926;DHT22;39836;52.754;6.866;2022-09-17T11:57:34;11.20;80.50
53926;DHT22;39836;52.754;6.866;2022-09-17T12:00:12;11.40;80.70
53926;DHT22;39836;52.754;6.866;2022-09-17T12:05:44;12.00;80.70
53926;DHT22;39836;52.754;6.866;2022-09-17T12:08:33;12.20;80.70
53926;DHT22;39836;52.754;6.866;2022-09-17T12:11:17;12.40;80.80
53926;DHT22;39836;52.754;6.866;2022-09-17T12:13:49;12.60;80.90
53926;DHT22;39836;52.754;6.866;2022-09-17T12:16:27;12.80;80.90
53926;DHT22;39836;52.754;6.866;2022-09-17T12:22:00;13.10;80.70
53926;DHT22;39836;52.754;6.866;2022-09-17T12:24:29;13.20;79.90
53926;DHT22;39836;52.754;6.866;2022-09-17T12:27:16;13.20;80.20
53926;DHT22;39836;52.754;6.866;2022-09-17T12:51:59;14.50;77.20
53926;DHT22;39836;52.754;6.866;2022-09-17T12:57:53;15.10;77.60
53926;DHT22;39836;52.754;6.866;2022-09-17T13:00:20;15.40;77.40
53926;DHT22;39836;52.754;6.866;2022-09-17T13:03:01;15.50;76.40
53926;DHT22;39836;52.754;6.866;2022-09-17T13:08:25;16.00;77.10
53926;DHT22;39836;52.754;6.866;2022-09-17T13:16:17;16.30;75.20
53926;DHT22;39836;52.754;6.866;2022-09-17T13:23:54;14.60;76.60
53926;DHT22;39836;52.754;6.866;2022-09-17T13:26:33;14.50;77.10
53926;DHT22;39836;52.754;6.866;2022-09-17T13:28:59;15.00;75.90
53926;DHT22;39836;52.754;6.866;2022-09-17T13:34:48;16.30;76.00
53926;DHT22;39836;52.754;6.866;2022-09-17T13:37:18;16.90;77.20
53926;DHT22;39836;52.754;6.866;2022-09-17T13:39:51;17.50;74.70
53926;DHT22;39836;52.754;6.866;2022-09-17T13:42:23;17.80;73.60
53926;DHT22;39836;52.754;6.866;2022-09-17T13:45:22;18.10;74.30
53926;DHT22;39836;52.754;6.866;2022-09-17T13:48:09;18.30;72.40
53926;DHT22;39836;52.754;6.866;2022-09-17T13:50:40;18.50;72.80
53926;DHT22;39836;52.754;6.866;2022-09-17T13:55:55;19.10;72.70
53926;DHT22;39836;52.754;6.866;2022-09-17T13:58:33;19.40;71.40
53926;DHT22;39836;52.754;6.866;2022-09-17T14:01:10;19.30;70.90
53926;DHT22;39836;52.754;6.866;2022-09-17T14:08:55;18.70;69.50
53926;DHT22;39836;52.754;6.866;2022-09-17T14:19:22;19.90;67.90
53926;DHT22;39836;52.754;6.866;2022-09-17T14:22:01;19.90;67.30
53926;DHT22;39836;52.754;6.866;2022-09-17T14:35:44;17.60;65.80
53926;DHT22;39836;52.754;6.866;2022-09-17T14:38:26;17.00;65.80
53926;DHT22;39836;52.754;6.866;2022-09-17T14:41:14;16.50;66.60
53926;DHT22;39836;52.754;6.866;2022-09-17T14:43:57;16.10;67.00
53926;DHT22;39836;52.754;6.866;2022-09-17T14:46:35;15.90;67.50
53926;DHT22;39836;52.754;6.866;2022-09-17T14:49:25;15.80;68.10
53926;DHT22;39836;52.754;6.866;2022-09-17T14:51:57;15.80;68.50
53926;DHT22;39836;52.754;6.866;2022-09-17T14:54:27;15.80;68.60
53926;DHT22;39836;52.754;6.866;2022-09-17T14:57:01;15.80;70.30
53926;DHT22;39836;52.754;6.866;2022-09-17T15:04:58;15.70;71.30
53926;DHT22;39836;52.754;6.866;2022-09-17T15:07:25;15.50;71.60
53926;DHT22;39836;52.754;6.866;2022-09-17T15:09:51;15.30;71.30
53926;DHT22;39836;52.754;6.866;2022-09-17T15:12:27;15.10;73.80
53926;DHT22;39836;52.754;6.866;2022-09-17T15:14:54;14.40;75.80
53926;DHT22;39836;52.754;6.866;2022-09-17T15:17:20;13.80;77.30
53926;DHT22;39836;52.754;6.866;2022-09-17T15:19:56;13.40;77.60
53926;DHT22;39836;52.754;6.866;2022-09-17T15:22:36;13.20;78.10
53926;DHT22;39836;52.754;6.866;2022-09-17T15:25:14;13.10;78.40
53926;DHT22;39836;52.754;6.866;2022-09-17T15:27:45;13.20;78.40
53926;DHT22;39836;52.754;6.866;2022-09-17T15:30:16;13.30;78.50
53926;DHT22;39836;52.754;6.866;2022-09-17T15:32:56;13.30;78.00
53926;DHT22;39836;52.754;6.866;2022-09-17T15:35:27;13.40;77.80
53926;DHT22;39836;52.754;6.866;2022-09-17T15:38:19;13.40;77.90
53926;DHT22;39836;52.754;6.866;2022-09-17T15:40:46;13.30;77.40
53926;DHT22;39836;52.754;6.866;2022-09-17T15:43:29;13.20;76.80
53926;DHT22;39836;52.754;6.866;2022-09-17T15:45:56;13.10;76.90
53926;DHT22;39836;52.754;6.866;2022-09-17T15:48:37;13.20;77.00
53926;DHT22;39836;52.754;6.866;2022-09-17T15:51:22;13.20;76.70
53926;DHT22;39836;52.754;6.866;2022-09-17T15:53:57;13.10;76.70
53926;DHT22;39836;52.754;6.866;2022-09-17T15:56:27;13.10;76.60
53926;DHT22;39836;52.754;6.866;2022-09-17T15:59:01;13.00;76.90
53926;DHT22;39836;52.754;6.866;2022-09-17T16:04:17;13.10;77.30
53926;DHT22;39836;52.754;6.866;2022-09-17T16:06:55;13.10;77.20
53926;DHT22;39836;52.754;6.866;2022-09-17T16:09:41;13.20;76.90
53926;DHT22;39836;52.754;6.866;2022-09-17T16:12:10;13.20;77.20
53926;DHT22;39836;52.754;6.866;2022-09-17T16:14:36;13.20;77.50
53926;DHT22;39836;52.754;6.866;2022-09-17T16:20:14;13.20;76.50
53926;DHT22;39836;52.754;6.866;2022-09-17T16:22:40;13.20;76.30
53926;DHT22;39836;52.754;6.866;2022-09-17T16:25:06;13.20;76.70
53926;DHT22;39836;52.754;6.866;2022-09-17T16:27:59;13.20;76.30
53926;DHT22;39836;52.754;6.866;2022-09-17T16:30:24;13.20;76.30
53926;DHT22;39836;52.754;6.866;2022-09-17T16:32:50;13.20;76.30
53926;DHT22;39836;52.754;6.866;2022-09-17T16:35:21;13.20;76.00
53926;DHT22;39836;52.754;6.866;2022-09-17T16:37:49;13.20;76.00
53926;DHT22;39836;52.754;6.866;2022-09-17T16:40:15;13.10;75.90
53926;DHT22;39836;52.754;6.866;2022-09-17T16:42:41;13.10;75.50
53926;DHT22;39836;52.754;6.866;2022-09-17T16:45:07;13.10;75.70
53926;DHT22;39836;52.754;6.866;2022-09-17T16:47:35;13.10;76.00
53926;DHT22;39836;52.754;6.866;2022-09-17T16:50:03;13.10;76.20
53926;DHT22;39836;52.754;6.866;2022-09-17T16:52:29;13.00;76.60
53926;DHT22;39836;52.754;6.866;2022-09-17T16:54:55;13.00;76.90
53926;DHT22;39836;52.754;6.866;2022-09-17T16:57:20;13.00;77.10
53926;DHT22;39836;52.754;6.866;2022-09-17T16:59:46;12.80;77.10
53926;DHT22;39836;52.754;6.866;2022-09-17T17:02:12;12.80;77.40
53926;DHT22;39836;52.754;6.866;2022-09-17T17:04:37;12.70;77.40
53926;DHT22;39836;52.754;6.866;2022-09-17T17:07:03;12.60;77.50
53926;DHT22;39836;52.754;6.866;2022-09-17T17:09:29;12.60;77.60
53926;DHT22;39836;52.754;6.866;2022-09-17T17:11:55;12.60;77.70
53926;DHT22;39836;52.754;6.866;2022-09-17T17:14:20;12.60;77.70
53926;DHT22;39836;52.754;6.866;2022-09-17T17:16:46;12.50;77.80
53926;DHT22;39836;52.754;6.866;2022-09-17T17:19:12;12.50;77.70
53926;DHT22;39836;52.754;6.866;2022-09-17T17:21:37;12.50;77.80
53926;DHT22;39836;52.754;6.866;2022-09-17T17:24:03;12.40;77.90
53926;DHT22;39836;52.754;6.866;2022-09-17T17:26:31;12.40;77.80
53926;DHT22;39836;52.754;6.866;2022-09-17T17:28:57;12.30;77.80
53926;DHT22;39836;52.754;6.866;2022-09-17T17:31:22;12.30;77.80
53926;DHT22;39836;52.754;6.866;2022-09-17T17:33:48;12.20;77.90
53926;DHT22;39836;52.754;6.866;2022-09-17T17:36:14;12.10;77.90
53926;DHT22;39836;52.754;6.866;2022-09-17T17:38:40;12.10;78.00
53926;DHT22;39836;52.754;6.866;2022-09-17T17:41:11;12.00;78.10
53926;DHT22;39836;52.754;6.866;2022-09-17T17:43:37;12.00;78.10
53926;DHT22;39836;52.754;6.866;2022-09-17T17:46:08;12.00;78.00
53926;DHT22;39836;52.754;6.866;2022-09-17T17:48:34;12.00;77.80
53926;DHT22;39836;52.754;6.866;2022-09-17T17:51:10;11.90;77.80
53926;DHT22;39836;52.754;6.866;2022-09-17T17:53:36;11.90;77.60
53926;DHT22;39836;52.754;6.866;2022-09-17T17:56:06;11.90;77.50
53926;DHT22;39836;52.754;6.866;2022-09-17T17:58:33;11.90;77.60
53926;DHT22;39836;52.754;6.866;2022-09-17T18:00:59;11.90;77.70
53926;DHT22;39836;52.754;6.866;2022-09-17T18:03:33;11.80;77.80
53926;DHT22;39836;52.754;6.866;2022-09-17T18:05:59;11.90;77.40
53926;DHT22;39836;52.754;6.866;2022-09-17T18:08:25;11.90;77.50
53926;DHT22;39836;52.754;6.866;2022-09-17T18:10:55;11.90;77.50
53926;DHT22;39836;52.754;6.866;2022-09-17T18:13:22;11.90;77.50
53926;DHT22;39836;52.754;6.866;2022-09-17T18:15:59;11.90;77.30
53926;DHT22;39836;52.754;6.866;2022-09-17T18:18:40;11.90;77.40
53926;DHT22;39836;52.754;6.866;2022-09-17T18:21:11;11.90;77.50
53926;DHT22;39836;52.754;6.866;2022-09-17T18:23:39;11.80;77.50
53926;DHT22;39836;52.754;6.866;2022-09-17T18:26:07;11.90;77.50
53926;DHT22;39836;52.754;6.866;2022-09-17T18:28:35;11.80;77.50
53926;DHT22;39836;52.754;6.866;2022-09-17T18:31:23;11.90;77.30
53926;DHT22;39836;52.754;6.866;2022-09-17T18:36:22;11.80;77.60
53926;DHT22;39836;52.754;6.866;2022-09-17T18:38:55;11.80;77.80
53926;DHT22;39836;52.754;6.866;2022-09-17T18:41:23;11.80;77.80
53926;DHT22;39836;52.754;6.866;2022-09-17T18:43:48;11.70;77.80
53926;DHT22;39836;52.754;6.866;2022-09-17T18:46:14;11.70;77.90
53926;DHT22;39836;52.754;6.866;2022-09-17T18:48:40;11.70;77.90
53926;DHT22;39836;52.754;6.866;2022-09-17T18:51:12;11.70;77.80
53926;DHT22;39836;52.754;6.866;2022-09-17T18:53:39;11.70;78.00
53926;DHT22;39836;52.754;6.866;2022-09-17T18:56:23;11.60;77.90
53926;DHT22;39836;52.754;6.866;2022-09-17T18:58:51;11.60;78.00
53926;DHT22;39836;52.754;6.866;2022-09-17T19:01:19;11.50;78.00
53926;DHT22;39836;52.754;6.866;2022-09-17T19:03:45;11.50;78.00
53926;DHT22;39836;52.754;6.866;2022-09-17T19:06:12;11.50;78.10
53926;DHT22;39836;52.754;6.866;2022-09-17T19:08:40;11.50;78.00
53926;DHT22;39836;52.754;6.866;2022-09-17T19:11:06;11.40;77.90
53926;DHT22;39836;52.754;6.866;2022-09-17T19:13:40;11.30;77.80